createdAt,value
2023-03-23T15:58:14.334Z,16.59
2023-03-23T16:00:44.356Z,16.69
2023-03-23T16:03:22.767Z,16.67
2023-03-23T16:05:52.018Z,16.69
2023-03-23T16:08:19.856Z,16.75
2023-03-23T16:10:48.556Z,16.76
2023-03-23T16:13:17.372Z,16.75
2023-03-23T16:15:48.014Z,16.70
2023-03-23T16:18:21.891Z,16.68
2023-03-23T16:20:51.049Z,16.71
2023-03-23T16:23:19.849Z,16.75
2023-03-23T16:25:48.130Z,16.71
2023-03-23T16:28:21.002Z,16.73
2023-03-23T16:30:50.189Z,16.70
2023-03-23T16:33:18.166Z,16.71
2023-03-23T16:35:49.499Z,16.70
2023-03-23T16:38:19.200Z,16.70
2023-03-23T16:40:48.488Z,16.67
2023-03-23T16:43:17.188Z,16.69
2023-03-23T16:45:47.521Z,16.68
2023-03-23T16:48:17.021Z,16.66
2023-03-23T16:50:45.857Z,16.64
2023-03-23T16:53:13.779Z,16.70
2023-03-23T16:55:44.434Z,16.69
2023-03-23T16:58:16.804Z,16.54
2023-03-23T17:00:50.448Z,16.46
2023-03-23T17:03:20.260Z,16.35
2023-03-23T17:05:51.093Z,16.36
2023-03-23T17:08:20.404Z,16.37
2023-03-23T17:10:49.260Z,16.36
2023-03-23T17:13:18.550Z,16.37
2023-03-23T17:15:47.629Z,16.39
2023-03-23T17:18:18.096Z,16.40
2023-03-23T17:20:47.308Z,16.22
2023-03-23T17:23:15.268Z,16.30
2023-03-23T17:25:47.940Z,16.37
2023-03-23T17:31:10.159Z,16.40
2023-03-23T17:33:38.166Z,16.42
2023-03-23T17:36:31.432Z,16.38
2023-03-23T17:39:03.298Z,16.33
2023-03-23T17:41:31.769Z,16.32
2023-03-23T17:43:59.663Z,16.33
2023-03-23T17:46:29.039Z,16.40
2023-03-23T17:49:12.330Z,16.40
2023-03-23T17:52:03.528Z,16.32
2023-03-23T17:54:39.680Z,16.36
2023-03-23T17:57:29.266Z,16.35
2023-03-23T18:00:04.423Z,16.16
2023-03-23T18:02:39.932Z,16.31
2023-03-23T18:05:32.373Z,16.35
2023-03-23T18:08:05.246Z,16.28
2023-03-23T18:10:37.362Z,16.19
2023-03-23T18:13:10.561Z,16.12
2023-03-23T18:15:46.755Z,16.15
2023-03-23T18:18:28.163Z,16.11
2023-03-23T18:28:04.661Z,15.97
2023-03-23T18:30:35.383Z,15.97
2023-03-23T18:33:04.748Z,15.95
2023-03-23T18:35:33.085Z,15.84
2023-03-23T18:38:02.233Z,15.77
2023-03-23T18:40:31.487Z,15.79
2023-03-23T18:43:00.872Z,15.75
2023-03-23T18:45:31.850Z,15.67
2023-03-23T18:48:20.308Z,15.69
2023-03-23T18:50:56.655Z,15.60
2023-03-23T18:53:35.188Z,15.71
2023-03-23T18:56:42.698Z,15.73
2023-03-23T18:59:25.001Z,15.65
2023-03-23T19:05:35.878Z,15.63
2023-03-23T19:11:39.424Z,15.54
2023-03-23T19:17:08.208Z,15.51
2023-03-23T19:19:54.407Z,15.49
2023-03-23T19:22:45.320Z,15.46
2023-03-23T19:25:22.986Z,15.45
2023-03-23T19:30:23.995Z,15.53
2023-03-23T19:32:52.249Z,15.48
2023-03-23T19:35:22.233Z,15.58
2023-03-23T19:37:50.129Z,15.60
2023-03-23T19:40:36.608Z,15.61
2023-03-23T19:43:08.876Z,15.64
2023-03-23T19:45:37.643Z,15.65
2023-03-23T19:48:06.090Z,15.58
2023-03-23T19:50:36.745Z,15.28
2023-03-23T19:53:06.680Z,15.30
2023-03-23T19:55:35.162Z,15.42
2023-03-23T19:58:10.699Z,15.48
2023-03-23T20:01:01.741Z,15.49
2023-03-23T20:03:30.859Z,15.44
2023-03-23T20:06:05.675Z,15.41
2023-03-23T20:08:35.060Z,15.42
2023-03-23T20:11:13.319Z,15.46
2023-03-23T20:13:43.174Z,15.43
2023-03-23T20:16:11.892Z,15.42
2023-03-23T20:18:40.931Z,15.49
2023-03-23T20:21:28.264Z,15.49
2023-03-23T20:23:58.675Z,15.45
2023-03-23T20:26:53.872Z,15.45
2023-03-23T20:29:23.981Z,15.45
2023-03-23T20:31:53.058Z,15.43
2023-03-23T20:34:33.695Z,15.42
2023-03-23T20:37:17.010Z,15.37
2023-03-23T20:39:53.420Z,15.15
2023-03-23T20:42:58.158Z,15.06
2023-03-23T20:45:33.474Z,15.19
2023-03-23T20:48:06.433Z,15.03
2023-03-23T20:50:40.106Z,15.09
2023-03-23T20:53:13.126Z,15.03
2023-03-23T20:55:54.385Z,15.03
2023-03-23T20:58:47.481Z,14.84
2023-03-23T21:02:00.986Z,14.96
2023-03-23T21:04:32.935Z,14.97
2023-03-23T21:07:11.534Z,14.97
2023-03-23T21:09:48.078Z,14.89
2023-03-23T21:12:24.078Z,14.88
2023-03-23T21:15:07.267Z,14.87
2023-03-23T21:17:43.130Z,14.83
2023-03-23T21:23:59.412Z,14.82
2023-03-23T21:26:37.144Z,14.81
2023-03-23T21:29:13.209Z,14.85
2023-03-23T21:31:55.053Z,14.83
2023-03-23T21:34:43.866Z,14.86
2023-03-23T21:37:17.531Z,14.85
2023-03-23T21:39:48.142Z,14.74
2023-03-23T21:42:26.611Z,14.71
2023-03-23T21:45:04.593Z,14.79
2023-03-23T21:47:39.903Z,14.79
2023-03-23T21:50:12.834Z,14.74
2023-03-23T21:52:52.237Z,14.73
2023-03-23T21:55:24.285Z,14.65
2023-03-23T21:57:57.305Z,14.55
2023-03-23T22:00:28.389Z,14.56
2023-03-23T22:03:04.982Z,14.50
2023-03-23T22:05:42.012Z,14.49
2023-03-23T22:08:20.664Z,14.47
2023-03-23T22:11:00.757Z,14.45
2023-03-23T22:13:40.114Z,14.44
2023-03-23T22:16:14.357Z,14.39
2023-03-23T22:18:47.785Z,14.44
2023-03-23T22:21:32.885Z,14.40
2023-03-23T22:24:08.558Z,14.35
2023-03-23T22:26:41.263Z,14.40
2023-03-23T22:29:13.811Z,14.28
2023-03-23T22:31:47.947Z,14.33
2023-03-23T22:34:20.242Z,14.32
2023-03-23T22:36:53.066Z,14.30
2023-03-23T22:39:23.532Z,14.23
2023-03-23T22:41:53.262Z,14.29
2023-03-23T22:44:25.024Z,14.26
2023-03-23T22:46:56.603Z,14.20
2023-03-23T22:49:29.950Z,14.16
2023-03-23T22:51:59.767Z,14.06
2023-03-23T22:54:28.858Z,14.02
2023-03-23T22:56:56.823Z,13.95
2023-03-23T22:59:25.772Z,13.89
2023-03-23T23:01:53.785Z,13.76
2023-03-23T23:04:22.107Z,13.73
2023-03-23T23:06:52.071Z,13.73
2023-03-23T23:09:26.006Z,13.65
2023-03-23T23:11:53.978Z,13.74
2023-03-23T23:14:22.558Z,13.74
2023-03-23T23:16:52.108Z,13.68
2023-03-23T23:19:20.876Z,13.72
2023-03-23T23:21:48.793Z,13.71
2023-03-23T23:24:18.294Z,13.61
2023-03-23T23:26:46.194Z,13.47
2023-03-23T23:29:14.495Z,13.42
2023-03-23T23:31:42.541Z,13.47
2023-03-23T23:34:13.838Z,13.46
2023-03-23T23:36:42.080Z,13.27
2023-03-23T23:39:10.552Z,13.27
2023-03-23T23:41:39.637Z,13.03
2023-03-23T23:44:08.010Z,13.15
2023-03-23T23:46:35.957Z,12.90
2023-03-23T23:49:04.639Z,12.86
2023-03-23T23:51:34.007Z,12.91
2023-03-23T23:54:02.331Z,12.94
2023-03-23T23:56:31.032Z,12.86
2023-03-23T23:58:59.477Z,12.83
